createdAt,value
2022-12-16T00:00:38.118Z,97050.28
2022-12-16T00:03:04.781Z,97051.41
2022-12-16T00:05:31.356Z,97057.25
2022-12-16T00:07:57.869Z,97058.44
2022-12-16T00:10:24.329Z,97058.25
2022-12-16T00:12:50.824Z,97066.88
2022-12-16T00:15:18.569Z,97070.53
2022-12-16T00:17:45.050Z,97068.44
2022-12-16T00:20:11.731Z,97082.19
2022-12-16T00:22:38.202Z,97081.94
2022-12-16T00:25:05.378Z,97072.97
2022-12-16T00:27:31.845Z,97062.72
2022-12-16T00:29:58.327Z,97051.47
2022-12-16T00:32:24.832Z,97054.75
2022-12-16T00:34:51.287Z,97070.38
2022-12-16T00:37:18.288Z,97064.69
2022-12-16T00:39:44.752Z,97056.72
2022-12-16T00:42:11.282Z,97064.16
2022-12-16T00:44:37.749Z,97061.50
2022-12-16T00:47:04.228Z,97076.25
2022-12-16T00:49:30.707Z,97073.41
2022-12-16T00:51:57.219Z,97078.97
2022-12-16T00:54:26.748Z,97085.97
2022-12-16T00:56:53.301Z,97083.50
2022-12-16T00:59:20.333Z,97088.09
2022-12-16T01:01:47.022Z,97090.94
2022-12-16T01:04:13.668Z,97093.50
2022-12-16T01:06:40.147Z,97096.13
2022-12-16T01:09:06.628Z,97101.34
2022-12-16T01:11:33.125Z,97098.03
2022-12-16T01:13:59.718Z,97110.06
2022-12-16T01:16:26.245Z,97108.28
2022-12-16T01:18:55.348Z,97116.13
2022-12-16T01:21:21.972Z,97116.81
2022-12-16T01:23:48.483Z,97118.34
2022-12-16T01:26:16.596Z,97115.75
2022-12-16T01:28:43.133Z,97114.44
2022-12-16T01:31:09.609Z,97116.22
2022-12-16T01:33:38.744Z,97116.47
2022-12-16T01:36:06.159Z,97116.59
2022-12-16T01:38:32.828Z,97119.19
2022-12-16T01:40:59.437Z,97117.19
2022-12-16T01:43:27.559Z,97112.91
2022-12-16T01:45:55.133Z,97120.94
2022-12-16T01:48:27.553Z,97123.19
2022-12-16T01:50:54.809Z,97119.53
2022-12-16T01:53:21.314Z,97129.94
2022-12-16T01:55:48.721Z,97127.94
2022-12-16T01:58:22.571Z,97137.97
2022-12-16T02:00:49.072Z,97142.34
2022-12-16T02:03:15.722Z,97149.66
2022-12-16T02:05:42.645Z,97142.81
2022-12-16T02:08:09.032Z,97144.69
2022-12-16T02:10:38.477Z,97150.47
2022-12-16T02:13:13.011Z,97148.59
2022-12-16T02:15:41.911Z,97155.19
2022-12-16T02:18:15.680Z,97154.25
2022-12-16T02:21:06.208Z,97159.34
2022-12-16T02:23:32.976Z,97155.69
2022-12-16T02:26:11.811Z,97158.41
2022-12-16T02:28:57.170Z,97159.69
2022-12-16T02:31:29.715Z,97153.56
2022-12-16T02:34:07.206Z,97148.72
2022-12-16T02:37:12.262Z,97147.75
2022-12-16T02:39:39.555Z,97152.72
2022-12-16T02:42:07.512Z,97151.41
2022-12-16T02:44:43.785Z,97150.47
2022-12-16T02:47:10.265Z,97149.78
2022-12-16T02:49:36.702Z,97151.28
2022-12-16T02:52:03.183Z,97155.91
2022-12-16T02:54:29.821Z,97159.00
2022-12-16T02:57:07.005Z,97166.78
2022-12-16T02:59:40.225Z,97171.03
2022-12-16T03:02:06.842Z,97165.97
2022-12-16T03:04:45.907Z,97163.47
2022-12-16T03:07:13.532Z,97174.00
2022-12-16T03:09:39.992Z,97179.44
2022-12-16T03:12:08.277Z,97171.19
2022-12-16T03:14:34.777Z,97172.94
2022-12-16T03:17:01.447Z,97180.84
2022-12-16T03:19:27.921Z,97182.16
2022-12-16T03:22:06.649Z,97171.50
2022-12-16T03:24:33.112Z,97178.50
2022-12-16T03:27:18.658Z,97191.13
2022-12-16T03:29:47.091Z,97180.97
2022-12-16T03:32:15.490Z,97182.03
2022-12-16T03:34:43.465Z,97182.38
2022-12-16T03:37:10.295Z,97181.22
2022-12-16T03:39:41.878Z,97191.84
2022-12-16T03:42:09.157Z,97203.91
2022-12-16T03:44:35.893Z,97201.31
2022-12-16T03:47:02.438Z,97201.06
2022-12-16T03:49:28.894Z,97209.34
2022-12-16T03:51:55.412Z,97210.16
2022-12-16T03:54:21.946Z,97207.91
2022-12-16T03:56:48.415Z,97211.44
2022-12-16T03:59:14.898Z,97216.28
2022-12-16T04:01:41.522Z,97221.78
2022-12-16T04:04:08.093Z,97222.13
2022-12-16T04:06:34.571Z,97215.69
2022-12-16T04:09:01.027Z,97229.59
2022-12-16T04:11:47.753Z,97233.06
2022-12-16T04:14:32.754Z,97225.13
2022-12-16T04:17:17.708Z,97227.81
2022-12-16T04:20:03.455Z,97232.09
2022-12-16T04:22:50.352Z,97236.66
2022-12-16T04:25:17.642Z,97242.59
2022-12-16T04:27:47.037Z,97241.34
2022-12-16T04:30:20.467Z,97242.97
2022-12-16T04:33:05.482Z,97248.41
2022-12-16T04:35:50.614Z,97244.13
2022-12-16T04:38:35.938Z,97246.88
2022-12-16T04:41:21.206Z,97243.31
2022-12-16T04:44:07.121Z,97253.47
2022-12-16T04:46:52.607Z,97257.88
2022-12-16T04:49:37.875Z,97264.84
2022-12-16T04:52:23.098Z,97266.28
2022-12-16T04:55:08.379Z,97269.13
2022-12-16T04:57:53.700Z,97275.00
2022-12-16T05:00:39.018Z,97272.78
2022-12-16T05:03:24.260Z,97272.06
2022-12-16T05:06:09.569Z,97278.56
2022-12-16T05:08:54.889Z,97268.66
2022-12-16T05:11:40.183Z,97275.03
2022-12-16T05:14:25.351Z,97278.56
2022-12-16T05:17:10.545Z,97282.13
2022-12-16T05:19:55.799Z,97289.66
2022-12-16T05:22:45.734Z,97287.31
2022-12-16T05:25:30.624Z,97286.25
2022-12-16T05:28:15.825Z,97289.84
2022-12-16T05:31:01.115Z,97300.88
2022-12-16T05:33:46.503Z,97298.72
2022-12-16T05:36:31.883Z,97310.00
2022-12-16T05:39:17.201Z,97317.31
2022-12-16T05:42:02.370Z,97316.59
2022-12-16T05:44:47.516Z,97324.16
2022-12-16T05:47:32.570Z,97325.38
2022-12-16T05:50:17.892Z,97328.16
2022-12-16T05:53:09.894Z,97328.66
2022-12-16T05:55:58.939Z,97336.97
2022-12-16T05:58:44.094Z,97348.34
2022-12-16T06:01:29.429Z,97339.06
2022-12-16T06:04:17.782Z,97345.66
2022-12-16T06:07:03.076Z,97353.03
2022-12-16T06:09:53.194Z,97355.69
2022-12-16T06:12:41.675Z,97367.84
2022-12-16T06:15:26.890Z,97378.16
2022-12-16T06:18:12.270Z,97377.38
2022-12-16T06:20:57.357Z,97381.88
2022-12-16T06:23:42.615Z,97388.44
2022-12-16T06:26:27.613Z,97396.09
2022-12-16T06:29:12.540Z,97393.56
2022-12-16T06:31:57.951Z,97404.13
2022-12-16T06:34:43.308Z,97405.94
2022-12-16T06:37:28.249Z,97404.28
2022-12-16T06:40:13.507Z,97417.59
2022-12-16T06:42:59.296Z,97414.22
2022-12-16T06:45:44.804Z,97422.25
2022-12-16T06:48:30.024Z,97420.75
2022-12-16T06:51:15.410Z,97428.84
2022-12-16T06:54:00.667Z,97435.63
2022-12-16T06:56:45.819Z,97446.47
2022-12-16T06:59:31.226Z,97453.91
2022-12-16T07:02:16.153Z,97455.22
2022-12-16T07:05:01.479Z,97458.81
2022-12-16T07:07:46.740Z,97463.03
2022-12-16T07:10:31.889Z,97474.72
2022-12-16T07:13:18.461Z,97474.91
2022-12-16T07:16:04.198Z,97479.09
2022-12-16T07:18:49.462Z,97486.75
2022-12-16T07:21:34.652Z,97493.28
2022-12-16T07:24:19.957Z,97497.44
2022-12-16T07:27:04.902Z,97494.94
2022-12-16T07:29:50.111Z,97492.69
2022-12-16T07:32:36.027Z,97497.56
2022-12-16T07:35:21.043Z,97499.19
2022-12-16T07:38:06.480Z,97503.56
2022-12-16T07:40:51.685Z,97508.88
2022-12-16T07:43:37.040Z,97512.69
2022-12-16T07:46:22.169Z,97513.78
2022-12-16T07:49:07.416Z,97522.13
2022-12-16T07:51:52.458Z,97524.22
2022-12-16T07:54:37.853Z,97533.09
2022-12-16T07:57:23.051Z,97535.56
2022-12-16T08:00:08.131Z,97541.38
2022-12-16T08:02:59.633Z,97543.22
2022-12-16T08:05:44.686Z,97549.25
2022-12-16T08:08:29.928Z,97552.09
2022-12-16T08:11:14.990Z,97560.25
2022-12-16T08:13:59.869Z,97563.50
2022-12-16T08:16:45.204Z,97558.63
2022-12-16T08:19:30.455Z,97561.00
2022-12-16T08:22:15.503Z,97561.66
2022-12-16T08:25:00.517Z,97577.38
2022-12-16T08:27:45.559Z,97582.31
2022-12-16T08:30:30.835Z,97581.16
2022-12-16T08:33:30.751Z,97587.41
2022-12-16T08:36:16.568Z,97592.41
2022-12-16T08:39:01.533Z,97593.75
2022-12-16T08:41:46.633Z,97602.56
2022-12-16T08:44:32.012Z,97606.72
2022-12-16T08:47:17.272Z,97611.22
2022-12-16T08:50:02.885Z,97611.03
2022-12-16T08:52:48.267Z,97620.00
2022-12-16T08:55:33.526Z,97617.69
2022-12-16T08:58:18.599Z,97622.41
2022-12-16T09:01:07.574Z,97630.25
2022-12-16T09:03:53.744Z,97639.66
2022-12-16T09:06:40.825Z,97648.97
2022-12-16T09:09:26.555Z,97644.44
2022-12-16T09:12:11.738Z,97649.63
2022-12-16T09:14:56.765Z,97650.47
2022-12-16T09:17:42.022Z,97653.44
2022-12-16T09:20:27.290Z,97653.44
2022-12-16T09:23:12.323Z,97660.13
2022-12-16T09:25:57.632Z,97660.38
2022-12-16T09:28:42.912Z,97662.13
2022-12-16T09:31:28.110Z,97661.22
2022-12-16T09:34:13.421Z,97666.19
2022-12-16T09:36:58.524Z,97669.19
2022-12-16T09:39:43.919Z,97672.25
2022-12-16T09:42:44.570Z,97669.69
2022-12-16T09:45:52.699Z,97677.41
2022-12-16T09:48:37.755Z,97684.78
2022-12-16T09:51:23.706Z,97686.91
2022-12-16T09:54:09.403Z,97690.00
2022-12-16T09:56:55.370Z,97689.50
2022-12-16T09:59:48.126Z,97687.63
2022-12-16T10:02:34.781Z,97695.78
2022-12-16T10:05:20.074Z,97686.16
2022-12-16T10:08:06.269Z,97698.19
2022-12-16T10:10:58.179Z,97691.34
2022-12-16T10:13:43.533Z,97701.78
2022-12-16T10:16:47.562Z,97697.47
2022-12-16T10:19:32.670Z,97704.66
2022-12-16T10:22:26.515Z,97698.06
2022-12-16T10:25:11.738Z,97701.97
2022-12-16T10:27:59.902Z,97701.78
2022-12-16T10:30:45.770Z,97693.81
2022-12-16T10:33:33.215Z,97705.09
2022-12-16T10:36:18.667Z,97697.59
2022-12-16T10:39:05.848Z,97709.59
2022-12-16T10:41:51.735Z,97706.09
2022-12-16T10:44:36.539Z,97710.84
2022-12-16T10:47:21.907Z,97704.31
2022-12-16T10:50:07.091Z,97705.91
2022-12-16T10:52:52.417Z,97710.13
2022-12-16T10:55:46.432Z,97712.81
2022-12-16T10:58:37.414Z,97713.66
2022-12-16T11:01:22.917Z,97725.19
2022-12-16T11:04:08.682Z,97721.56
2022-12-16T11:06:53.993Z,97722.22
2022-12-16T11:09:40.247Z,97722.28
2022-12-16T11:12:44.388Z,97721.25
2022-12-16T11:15:41.827Z,97719.97
2022-12-16T11:18:29.185Z,97732.81
2022-12-16T11:21:33.926Z,97733.09
2022-12-16T11:24:39.531Z,97734.38
2022-12-16T11:27:34.851Z,97735.75
2022-12-16T11:30:20.831Z,97725.28
2022-12-16T11:33:13.171Z,97734.16
2022-12-16T11:36:02.608Z,97738.66
2022-12-16T11:38:49.327Z,97734.94
2022-12-16T11:41:40.503Z,97740.66
2022-12-16T11:44:26.635Z,97747.66
2022-12-16T11:47:11.833Z,97742.03
2022-12-16T11:49:57.032Z,97743.84
2022-12-16T11:52:42.310Z,97735.81
2022-12-16T11:56:03.676Z,97744.13
2022-12-16T11:58:38.575Z,97747.97
2022-12-16T12:01:31.403Z,97748.38
2022-12-16T12:04:16.707Z,97761.41
2022-12-16T12:07:44.247Z,97760.22
2022-12-16T12:13:13.094Z,97758.25
2022-12-16T12:16:09.638Z,97759.81
2022-12-16T12:19:14.826Z,97774.94
2022-12-16T12:21:59.578Z,97772.31
2022-12-16T12:24:47.722Z,97777.91
2022-12-16T12:27:36.131Z,97778.81
2022-12-16T12:30:24.267Z,97784.13
2022-12-16T12:33:28.398Z,97786.47
2022-12-16T12:36:19.678Z,97792.78
2022-12-16T12:39:23.665Z,97796.06
2022-12-16T12:42:11.625Z,97799.94
2022-12-16T12:44:56.846Z,97809.31
2022-12-16T12:47:42.190Z,97812.91
2022-12-16T12:50:39.490Z,97807.13
2022-12-16T12:53:41.477Z,97819.41
2022-12-16T12:56:45.426Z,97815.81
2022-12-16T12:59:33.222Z,97816.88
2022-12-16T13:02:18.981Z,97818.19
2022-12-16T13:05:04.115Z,97817.19
2022-12-16T13:07:50.706Z,97815.66
2022-12-16T13:10:39.154Z,97816.41
2022-12-16T13:13:34.087Z,97814.38
2022-12-16T13:16:21.500Z,97824.25
2022-12-16T13:19:09.541Z,97825.16
2022-12-16T13:21:56.742Z,97831.97
2022-12-16T13:24:45.441Z,97832.97
2022-12-16T13:27:31.925Z,97836.63
2022-12-16T13:30:31.350Z,97836.59
2022-12-16T13:33:24.469Z,97842.03
2022-12-16T13:36:12.557Z,97847.16
2022-12-16T13:39:03.824Z,97853.91
2022-12-16T13:41:49.183Z,97849.34
2022-12-16T13:45:03.186Z,97860.06
2022-12-16T13:47:58.662Z,97863.47
2022-12-16T13:50:57.244Z,97875.03
2022-12-16T13:53:48.842Z,97871.28
2022-12-16T13:56:42.115Z,97871.91
2022-12-16T13:59:37.576Z,97881.84
2022-12-16T14:02:43.099Z,97885.34
2022-12-16T14:05:57.245Z,97898.56
2022-12-16T14:08:42.526Z,97896.19
2022-12-16T14:11:37.541Z,97899.84
2022-12-16T14:14:30.441Z,97909.22
2022-12-16T14:17:17.101Z,97913.41
2022-12-16T14:20:10.938Z,97922.34
2022-12-16T14:23:05.990Z,97918.38
2022-12-16T14:25:51.362Z,97919.03
2022-12-16T14:28:39.870Z,97939.50
2022-12-16T14:31:25.186Z,97940.03
2022-12-16T14:34:13.677Z,97943.38
2022-12-16T14:36:59.023Z,97953.06
2022-12-16T14:39:48.000Z,97949.19
2022-12-16T14:42:43.504Z,97957.53
2022-12-16T14:45:55.032Z,97963.16
2022-12-16T14:48:44.530Z,97970.84
2022-12-16T14:51:34.175Z,97961.59
2022-12-16T14:54:33.541Z,97965.84
2022-12-16T14:57:18.978Z,97966.06
2022-12-16T15:00:04.068Z,97974.38
2022-12-16T15:02:50.086Z,97977.72
2022-12-16T15:05:35.472Z,97976.06
2022-12-16T15:08:20.631Z,97985.22
2022-12-16T15:11:05.846Z,97990.97
2022-12-16T15:13:51.078Z,97992.75
2022-12-16T15:16:37.474Z,97989.81
2022-12-16T15:19:22.764Z,98004.31
2022-12-16T15:22:08.173Z,98000.03
2022-12-16T15:24:55.397Z,98006.06
2022-12-16T15:27:40.634Z,98011.50
2022-12-16T15:30:44.759Z,98010.75
2022-12-16T15:33:31.793Z,98013.75
2022-12-16T15:36:19.747Z,98018.88
2022-12-16T15:39:05.176Z,98023.00
2022-12-16T15:41:54.662Z,98029.88
2022-12-16T15:44:40.434Z,98033.88
2022-12-16T15:47:35.442Z,98039.78
2022-12-16T15:50:20.690Z,98048.19
2022-12-16T15:53:06.013Z,98048.78
2022-12-16T15:55:52.801Z,98046.19
2022-12-16T15:58:54.464Z,98059.91
2022-12-16T16:01:43.472Z,98055.94
2022-12-16T16:04:39.729Z,98065.97
2022-12-16T16:07:27.489Z,98067.09
2022-12-16T16:10:12.879Z,98071.88
2022-12-16T16:12:58.058Z,98076.31
2022-12-16T16:15:43.369Z,98079.69
2022-12-16T16:18:28.181Z,98079.88
2022-12-16T16:21:13.378Z,98087.50
2022-12-16T16:23:58.622Z,98092.75
2022-12-16T16:26:45.468Z,98104.34
2022-12-16T16:29:30.786Z,98098.38
2022-12-16T16:32:15.740Z,98106.41
2022-12-16T16:35:01.004Z,98105.66
2022-12-16T16:37:46.177Z,98105.22
2022-12-16T16:40:40.740Z,98106.06
2022-12-16T16:43:27.482Z,98112.88
2022-12-16T16:46:13.173Z,98116.03
2022-12-16T16:48:58.543Z,98114.47
2022-12-16T16:51:43.739Z,98113.63
2022-12-16T16:54:29.045Z,98119.78
2022-12-16T16:57:14.292Z,98127.94
2022-12-16T16:59:59.458Z,98122.16
2022-12-16T17:02:44.644Z,98121.63
2022-12-16T17:05:29.705Z,98124.03
2022-12-16T17:08:14.879Z,98133.47
2022-12-16T17:11:00.263Z,98143.41
2022-12-16T17:13:45.490Z,98144.72
2022-12-16T17:16:31.036Z,98146.13
2022-12-16T17:19:17.007Z,98154.56
2022-12-16T17:22:02.121Z,98160.13
2022-12-16T17:24:51.398Z,98163.00
2022-12-16T17:27:39.557Z,98162.56
2022-12-16T17:30:40.787Z,98177.63
2022-12-16T17:33:30.318Z,98185.50
2022-12-16T17:36:15.437Z,98198.78
2022-12-16T17:39:01.376Z,98193.03
2022-12-16T17:41:47.207Z,98194.97
2022-12-16T17:44:32.559Z,98199.91
2022-12-16T17:47:17.747Z,98191.72
2022-12-16T17:50:03.058Z,98202.13
2022-12-16T17:52:48.354Z,98210.28
2022-12-16T17:55:33.579Z,98215.78
2022-12-16T17:58:21.668Z,98213.53
2022-12-16T18:01:06.944Z,98214.75
2022-12-16T18:03:52.283Z,98224.50
2022-12-16T18:06:38.594Z,98213.75
2022-12-16T18:09:23.519Z,98222.66
2022-12-16T18:12:08.843Z,98226.47
2022-12-16T18:14:54.088Z,98227.22
2022-12-16T18:17:39.386Z,98223.94
2022-12-16T18:20:24.650Z,98230.56
2022-12-16T18:23:12.974Z,98238.25
2022-12-16T18:25:58.158Z,98232.03
2022-12-16T18:28:43.357Z,98244.00
2022-12-16T18:31:28.598Z,98236.41
2022-12-16T18:34:13.921Z,98242.34
2022-12-16T18:36:59.156Z,98245.59
2022-12-16T18:39:44.444Z,98249.47
2022-12-16T18:42:29.585Z,98262.09
2022-12-16T18:45:14.796Z,98266.63
2022-12-16T18:47:59.735Z,98269.78
2022-12-16T18:50:45.011Z,98272.16
2022-12-16T18:53:30.486Z,98278.63
2022-12-16T18:56:19.359Z,98287.16
2022-12-16T18:59:04.681Z,98282.56
2022-12-16T19:01:49.839Z,98288.66
2022-12-16T19:04:35.130Z,98293.00
2022-12-16T19:07:20.333Z,98295.50
2022-12-16T19:10:05.554Z,98304.25
2022-12-16T19:12:50.898Z,98307.25
2022-12-16T19:15:40.980Z,98302.41
2022-12-16T19:18:26.470Z,98311.28
2022-12-16T19:21:13.694Z,98312.13
2022-12-16T19:24:01.913Z,98316.16
2022-12-16T19:26:47.231Z,98323.88
2022-12-16T19:29:32.505Z,98326.28
2022-12-16T19:32:17.648Z,98320.66
2022-12-16T19:35:03.182Z,98318.69
2022-12-16T19:37:48.383Z,98325.72
2022-12-16T19:40:33.794Z,98331.22
2022-12-16T19:43:19.032Z,98339.44
2022-12-16T19:46:10.050Z,98346.13
2022-12-16T19:48:56.168Z,98353.09
2022-12-16T19:51:41.230Z,98356.19
2022-12-16T19:54:26.500Z,98360.56
2022-12-16T19:57:11.718Z,98363.75
2022-12-16T19:59:56.592Z,98367.19
2022-12-16T20:02:41.988Z,98367.25
2022-12-16T20:05:27.348Z,98380.16
2022-12-16T20:08:12.220Z,98385.31
2022-12-16T20:10:57.639Z,98380.34
2022-12-16T20:13:43.066Z,98386.34
2022-12-16T20:16:29.328Z,98393.63
2022-12-16T20:19:14.559Z,98400.09
2022-12-16T20:25:05.008Z,98406.53
2022-12-16T20:27:50.366Z,98411.91
2022-12-16T20:30:35.591Z,98406.31
2022-12-16T20:33:20.778Z,98413.34
2022-12-16T20:36:16.362Z,98422.19
2022-12-16T20:39:01.526Z,98420.38
2022-12-16T20:41:48.512Z,98415.09
2022-12-16T20:44:33.582Z,98429.00
2022-12-16T20:47:18.659Z,98416.41
2022-12-16T20:50:03.661Z,98426.22
2022-12-16T20:52:48.891Z,98423.91
2022-12-16T20:55:34.127Z,98425.91
2022-12-16T20:58:19.353Z,98428.50
2022-12-16T21:01:04.700Z,98428.25
2022-12-16T21:03:49.812Z,98429.56
2022-12-16T21:06:34.731Z,98431.16
2022-12-16T21:09:19.990Z,98430.34
2022-12-16T21:12:05.321Z,98437.63
2022-12-16T21:14:51.598Z,98442.97
2022-12-16T21:17:36.921Z,98454.31
2022-12-16T21:20:22.954Z,98460.03
2022-12-16T21:23:08.202Z,98463.72
2022-12-16T21:25:53.550Z,98473.09
2022-12-16T21:28:45.837Z,98468.38
2022-12-16T21:31:30.771Z,98477.13
2022-12-16T21:34:16.109Z,98481.22
2022-12-16T21:37:01.358Z,98481.19
2022-12-16T21:39:46.582Z,98477.75
2022-12-16T21:42:35.998Z,98485.34
2022-12-16T21:45:22.836Z,98492.63
2022-12-16T21:48:11.292Z,98497.56
2022-12-16T21:50:56.547Z,98505.66
2022-12-16T21:53:53.576Z,98507.47
2022-12-16T21:56:38.646Z,98513.59
2022-12-16T21:59:24.035Z,98513.81
2022-12-16T22:02:09.064Z,98516.16
2022-12-16T22:04:54.730Z,98520.72
2022-12-16T22:07:42.277Z,98519.59
2022-12-16T22:10:27.731Z,98520.78
2022-12-16T22:13:17.545Z,98532.44
2022-12-16T22:16:02.942Z,98536.22
2022-12-16T22:18:48.467Z,98544.13
2022-12-16T22:21:33.922Z,98551.38
2022-12-16T22:24:19.128Z,98555.81
2022-12-16T22:27:04.602Z,98551.91
2022-12-16T22:29:51.452Z,98554.94
2022-12-16T22:32:36.603Z,98569.56
2022-12-16T22:35:22.028Z,98568.44
2022-12-16T22:38:07.313Z,98573.00
2022-12-16T22:40:52.658Z,98576.56
2022-12-16T22:43:49.211Z,98577.41
2022-12-16T22:46:34.476Z,98579.44
2022-12-16T22:49:19.620Z,98582.38
2022-12-16T22:52:05.052Z,98579.38
2022-12-16T22:54:50.042Z,98591.28
2022-12-16T22:57:35.418Z,98595.78
2022-12-16T23:00:20.715Z,98595.19
2022-12-16T23:03:05.900Z,98597.13
2022-12-16T23:05:51.233Z,98603.69
2022-12-16T23:08:38.588Z,98613.31
2022-12-16T23:11:23.738Z,98611.91
2022-12-16T23:14:09.197Z,98612.44
2022-12-16T23:16:54.794Z,98608.59
2022-12-16T23:19:41.531Z,98612.63
2022-12-16T23:22:26.757Z,98611.50
2022-12-16T23:25:12.031Z,98616.78
2022-12-16T23:27:57.607Z,98610.59
2022-12-16T23:30:42.836Z,98613.91
2022-12-16T23:33:28.188Z,98615.78
2022-12-16T23:36:13.444Z,98617.84
2022-12-16T23:38:58.753Z,98616.03
2022-12-16T23:41:44.075Z,98616.13
2022-12-16T23:44:29.292Z,98617.88
2022-12-16T23:47:14.347Z,98613.22
2022-12-16T23:49:59.433Z,98613.88
2022-12-16T23:52:44.390Z,98617.94
2022-12-16T23:55:29.643Z,98621.94
2022-12-16T23:58:20.985Z,98616.06
